Time;durP1;ratioP1;P1;durP2;ratioP2;P2;SDS_P1;SDS_P2;PMS_P1;PMS_P2;Temp;Humidity;BMP_temperature;BMP_pressure;BME280_temperature;BME280_humidity;BME280_pressure;Samples;Min_cycle;Max_cycle;Signal;HPM_P1;HPM_P2
2023/01/12 00:01:57;;;;;;;28.08;18.13;;;;;;;;;;5066366;28;20095;-75
2023/01/12 00:04:23;;;;;;;31.52;19.45;;;;;;;;;;5073561;28;20028;-78
2023/01/12 00:06:49;;;;;;;31.33;21.65;;;;;;;;;;5069255;28;20114;-78
2023/01/12 00:09:15;;;;;;;31.20;19.25;;;;;;;;;;5074042;28;20072;-77
2023/01/12 00:11:41;;;;;;;25.45;16.92;;;;;;;;;;5074675;28;20108;-77
2023/01/12 00:14:08;;;;;;;31.42;19.73;;;;;;;;;;5075521;28;20033;-78
2023/01/12 00:16:36;;;;;;;25.30;14.73;;;;;;;;;;5075055;28;20119;-77
2023/01/12 00:19:14;;;;;;;30.15;19.63;;;;;;;;;;5074651;28;20024;-77
2023/01/12 00:21:49;;;;;;;27.45;17.95;;;;;;;;;;5074782;28;20009;-78
2023/01/12 00:24:15;;;;;;;24.30;16.92;;;;;;;;;;5074985;28;20032;-78
2023/01/12 00:26:42;;;;;;;27.13;17.45;;;;;;;;;;5074296;28;20025;-77
2023/01/12 00:29:08;;;;;;;39.25;23.15;;;;;;;;;;5075306;28;20047;-77
2023/01/12 00:31:34;;;;;;;36.30;23.98;;;;;;;;;;5068773;28;20024;-78
2023/01/12 00:34:00;;;;;;;73.43;41.58;;;;;;;;;;5074396;28;20040;-77
2023/01/12 00:36:26;;;;;;;65.50;36.83;;;;;;;;;;5074189;28;20122;-77
2023/01/12 00:38:52;;;;;;;75.80;40.30;;;;;;;;;;5067231;28;20024;-78
2023/01/12 00:46:48;;;;;;;49.28;29.58;;;;;;;;;;5055014;28;20028;-77
2023/01/12 00:49:14;;;;;;;57.25;34.30;;;;;;;;;;5073322;28;20124;-77
2023/01/12 00:51:40;;;;;;;47.50;28.98;;;;;;;;;;5073386;28;20633;-77
2023/01/12 00:54:07;;;;;;;51.17;32.70;;;;;;;;;;5073053;28;20399;-77
2023/01/12 00:56:36;;;;;;;42.25;24.30;;;;;;;;;;5073165;28;20455;-77
2023/01/12 00:59:03;;;;;;;71.32;37.22;;;;;;;;;;5073093;28;20071;-77
2023/01/12 01:01:29;;;;;;;36.88;23.50;;;;;;;;;;5072893;28;20524;-77
2023/01/12 01:03:55;;;;;;;34.22;22.27;;;;;;;;;;5061777;28;20033;-77
2023/01/12 01:06:21;;;;;;;50.78;27.05;;;;;;;;;;5073094;28;20063;-77
2023/01/12 01:08:47;;;;;;;68.60;36.25;;;;;;;;;;5072695;28;20028;-77
2023/01/12 01:11:14;;;;;;;54.50;31.67;;;;;;;;;;5072573;28;20021;-77
2023/01/12 01:13:42;;;;;;;49.05;29.58;;;;;;;;;;5071848;28;20036;-77
2023/01/12 01:16:09;;;;;;;95.18;38.72;;;;;;;;;;5072811;28;20467;-77
2023/01/12 01:18:35;;;;;;;56.08;30.52;;;;;;;;;;5064308;28;20716;-77
2023/01/12 01:21:02;;;;;;;42.95;25.80;;;;;;;;;;5071352;28;20099;-78
2023/01/12 01:23:28;;;;;;;44.53;27.02;;;;;;;;;;5072251;28;20101;-77
2023/01/12 01:25:54;;;;;;;42.05;26.17;;;;;;;;;;5058858;28;20073;-77
2023/01/12 01:28:21;;;;;;;40.58;22.95;;;;;;;;;;5055929;28;20490;-77
2023/01/12 01:30:47;;;;;;;38.97;22.48;;;;;;;;;;5073141;28;20119;-77
2023/01/12 01:33:13;;;;;;;38.30;24.55;;;;;;;;;;5072415;28;20455;-77
2023/01/12 01:35:39;;;;;;;36.15;22.40;;;;;;;;;;5068167;28;20053;-77
2023/01/12 01:38:06;;;;;;;35.58;21.17;;;;;;;;;;5052386;28;20070;-78
2023/01/12 01:40:32;;;;;;;33.70;21.63;;;;;;;;;;5072352;28;20039;-77
2023/01/12 01:42:58;;;;;;;35.08;21.65;;;;;;;;;;5072751;28;20020;-77
2023/01/12 01:45:24;;;;;;;38.38;22.83;;;;;;;;;;5076210;28;20028;-77
2023/01/12 01:47:52;;;;;;;22.67;14.50;;;;;;;;;;5065070;28;20122;-77
2023/01/12 01:50:22;;;;;;;19.42;12.25;;;;;;;;;;5071061;28;20044;-77
2023/01/12 01:52:51;;;;;;;16.08;10.55;;;;;;;;;;5076052;28;20360;-77
2023/01/12 01:55:26;;;;;;;29.00;16.80;;;;;;;;;;5071953;28;20041;-77
2023/01/12 01:57:54;;;;;;;30.60;17.17;;;;;;;;;;5075605;28;20027;-77
2023/01/12 02:00:21;;;;;;;32.22;20.05;;;;;;;;;;5076174;28;20028;-77
2023/01/12 02:02:47;;;;;;;30.45;18.05;;;;;;;;;;5075741;28;20028;-77
2023/01/12 02:05:16;;;;;;;30.23;19.08;;;;;;;;;;5074903;28;20029;-77
2023/01/12 02:07:43;;;;;;;28.75;19.95;;;;;;;;;;5075627;28;20047;-77
2023/01/12 02:10:09;;;;;;;35.13;20.77;;;;;;;;;;5075716;28;20035;-77
2023/01/12 02:18:09;;;;;;;26.65;15.75;;;;;;;;;;5075253;28;20063;-77
2023/01/12 02:20:47;;;;;;;26.75;14.82;;;;;;;;;;5065228;28;20036;-77
2023/01/12 02:23:16;;;;;;;22.10;13.95;;;;;;;;;;5055427;28;20063;-77
2023/01/12 02:25:54;;;;;;;26.98;15.60;;;;;;;;;;5059540;28;20029;-77
2023/01/12 02:28:27;;;;;;;39.40;18.50;;;;;;;;;;5075136;28;20817;-77
2023/01/12 02:30:52;;;;;;;;;;;;;;;;;;5075743;28;20574;-77
2023/01/12 02:33:39;;;;;;;20.60;11.68;;;;;;;;;;5075059;28;19958;-78
2023/01/12 02:36:08;;;;;;;34.13;16.08;;;;;;;;;;5074250;28;20152;-78
2023/01/12 02:38:34;;;;;;;24.80;11.90;;;;;;;;;;5074699;28;20031;-77
2023/01/12 02:41:06;;;;;;;30.40;16.05;;;;;;;;;;5075250;28;20033;-78
2023/01/12 02:43:34;;;;;;;24.40;11.50;;;;;;;;;;5074763;28;20360;-77
2023/01/12 02:46:21;;;;;;;21.05;10.20;;;;;;;;;;5071186;28;20032;-77
2023/01/12 02:49:00;;;;;;;24.33;10.68;;;;;;;;;;5056198;28;20031;-77
2023/01/12 02:51:31;;;;;;;17.10;8.07;;;;;;;;;;5074327;28;20028;-77
2023/01/12 02:54:00;;;;;;;17.90;8.57;;;;;;;;;;5074214;28;20039;-77
2023/01/12 02:56:38;;;;;;;14.20;7.13;;;;;;;;;;5066087;28;20357;-77
2023/01/12 02:59:24;;;;;;;21.05;10.45;;;;;;;;;;5062050;28;20025;-77
2023/01/12 03:01:51;;;;;;;16.60;8.68;;;;;;;;;;5066325;28;20032;-77
2023/01/12 03:04:18;;;;;;;32.38;17.40;;;;;;;;;;5067466;28;20040;-77
2023/01/12 03:07:07;;;;;;;22.77;13.25;;;;;;;;;;5062644;28;20459;-78
2023/01/12 03:09:36;;;;;;;18.15;8.38;;;;;;;;;;5074361;28;20040;-78
2023/01/12 03:12:06;;;;;;;19.88;9.80;;;;;;;;;;5073449;28;20086;-78
2023/01/12 03:14:34;;;;;;;25.00;12.63;;;;;;;;;;5074459;28;20541;-78
2023/01/12 03:17:02;;;;;;;33.33;15.38;;;;;;;;;;5074275;28;20379;-77
2023/01/12 03:19:31;;;;;;;50.08;26.02;;;;;;;;;;5074212;28;20037;-77
2023/01/12 03:22:01;;;;;;;29.85;16.38;;;;;;;;;;5072710;28;20044;-77
2023/01/12 03:24:32;;;;;;;34.10;16.20;;;;;;;;;;5074260;28;20048;-77
2023/01/12 03:27:01;;;;;;;25.03;11.93;;;;;;;;;;5074057;28;20056;-77
2023/01/12 03:29:27;;;;;;;22.13;11.25;;;;;;;;;;5070715;28;20283;-77
2023/01/12 03:31:53;;;;;;;16.23;8.30;;;;;;;;;;5069382;28;20024;-77
2023/01/12 03:34:20;;;;;;;15.80;7.35;;;;;;;;;;5073907;28;20071;-78
2023/01/12 03:37:06;;;;;;;21.13;9.35;;;;;;;;;;5067531;28;20476;-77
2023/01/12 03:39:32;;;;;;;21.70;10.52;;;;;;;;;;5053857;28;20052;-77
2023/01/12 03:42:07;;;;;;;18.80;8.80;;;;;;;;;;5067093;28;20765;-77
2023/01/12 03:44:39;;;;;;;19.05;8.10;;;;;;;;;;5073377;28;20097;-78
2023/01/12 03:47:09;;;;;;;15.48;6.80;;;;;;;;;;5065754;28;20096;-78
2023/01/12 03:49:52;;;;;;;13.80;7.70;;;;;;;;;;5067290;28;20036;-78
2023/01/12 03:52:19;;;;;;;13.48;6.57;;;;;;;;;;5054887;28;20447;-77
2023/01/12 03:54:46;;;;;;;20.02;9.60;;;;;;;;;;5073226;28;20043;-77
2023/01/12 03:57:12;;;;;;;17.35;7.40;;;;;;;;;;5072968;28;20029;-77
2023/01/12 03:59:39;;;;;;;23.40;9.32;;;;;;;;;;5065363;28;20460;-78
2023/01/12 04:02:05;;;;;;;22.27;10.02;;;;;;;;;;5059897;28;20138;-77
2023/01/12 04:04:31;;;;;;;22.98;12.25;;;;;;;;;;5053177;28;20111;-78
2023/01/12 04:06:58;;;;;;;21.70;9.25;;;;;;;;;;5059452;28;20032;-77
2023/01/12 04:09:24;;;;;;;18.55;9.70;;;;;;;;;;5073111;28;20028;-77
2023/01/12 04:12:09;;;;;;;29.92;13.93;;;;;;;;;;5072784;28;20356;-77
2023/01/12 04:14:35;;;;;;;29.50;12.77;;;;;;;;;;5073068;28;20039;-77
2023/01/12 04:17:01;;;;;;;31.13;15.10;;;;;;;;;;5072324;28;20036;-77
2023/01/12 04:19:27;;;;;;;25.25;11.05;;;;;;;;;;5073058;28;20452;-78
2023/01/12 04:24:38;;;;;;;16.20;7.78;;;;;;;;;;5070728;28;20055;-77
2023/01/12 04:27:04;;;;;;;16.60;6.05;;;;;;;;;;5071101;28;20452;-77
2023/01/12 04:29:30;;;;;;;14.23;6.65;;;;;;;;;;5073004;28;20040;-77
2023/01/12 04:31:56;;;;;;;16.25;6.28;;;;;;;;;;5072217;28;20029;-77
2023/01/12 04:34:22;;;;;;;16.58;7.90;;;;;;;;;;5072699;28;20037;-77
2023/01/12 04:36:48;;;;;;;22.60;12.30;;;;;;;;;;5072317;28;20126;-77
2023/01/12 04:39:14;;;;;;;19.33;8.73;;;;;;;;;;5071487;28;20032;-78
2023/01/12 04:41:40;;;;;;;20.83;8.07;;;;;;;;;;5071994;28;20111;-77
2023/01/12 04:44:06;;;;;;;29.20;13.52;;;;;;;;;;5058879;28;20079;-77
2023/01/12 04:46:32;;;;;;;22.50;10.48;;;;;;;;;;5071930;28;20075;-78
2023/01/12 04:48:58;;;;;;;17.23;7.95;;;;;;;;;;5066523;28;20494;-78
2023/01/12 04:51:25;;;;;;;15.75;8.43;;;;;;;;;;5071936;28;20037;-78
2023/01/12 04:53:51;;;;;;;17.63;8.95;;;;;;;;;;5061037;28;20021;-77
2023/01/12 04:56:17;;;;;;;15.27;7.32;;;;;;;;;;5071811;28;20037;-77
2023/01/12 04:58:43;;;;;;;19.63;12.10;;;;;;;;;;5065851;28;20056;-78
2023/01/12 05:01:09;;;;;;;18.38;9.80;;;;;;;;;;5052734;28;20031;-78
2023/01/12 05:03:35;;;;;;;24.25;11.68;;;;;;;;;;5065492;28;20100;-77
2023/01/12 05:06:02;;;;;;;24.05;13.43;;;;;;;;;;5072007;28;20028;-77
2023/01/12 05:11:12;;;;;;;23.70;12.05;;;;;;;;;;5072588;28;20460;-77
2023/01/12 05:13:38;;;;;;;29.42;16.52;;;;;;;;;;5068200;28;20075;-78
2023/01/12 05:16:15;;;;;;;23.95;13.63;;;;;;;;;;5065363;28;20040;-77
2023/01/12 05:18:41;;;;;;;22.38;13.23;;;;;;;;;;5062898;28;20036;-77
2023/01/12 05:21:07;;;;;;;28.38;18.08;;;;;;;;;;5056334;28;20472;-78
2023/01/12 05:23:33;;;;;;;29.75;19.20;;;;;;;;;;5072417;28;20111;-77
2023/01/12 05:26:00;;;;;;;30.67;19.92;;;;;;;;;;5076537;28;20083;-77
2023/01/12 05:28:27;;;;;;;30.25;18.63;;;;;;;;;;5076131;28;20391;-77
2023/01/12 05:30:53;;;;;;;16.67;9.43;;;;;;;;;;5076574;28;20040;-77
2023/01/12 05:33:19;;;;;;;17.88;11.13;;;;;;;;;;5075585;28;20035;-77
2023/01/12 05:35:45;;;;;;;17.88;8.23;;;;;;;;;;5076268;28;20052;-77
2023/01/12 05:38:12;;;;;;;7.65;3.00;;;;;;;;;;5075731;28;20033;-77
2023/01/12 05:40:38;;;;;;;14.60;4.75;;;;;;;;;;5075835;28;20033;-77
2023/01/12 05:45:48;;;;;;;9.40;4.13;;;;;;;;;;5056452;28;20486;-77
2023/01/12 05:48:14;;;;;;;7.25;3.50;;;;;;;;;;5058543;28;20028;-77
2023/01/12 05:50:40;;;;;;;8.93;2.78;;;;;;;;;;5076043;28;20042;-77
2023/01/12 05:53:06;;;;;;;6.03;2.40;;;;;;;;;;5075490;28;20032;-77
2023/01/12 05:55:32;;;;;;;14.77;5.47;;;;;;;;;;5076291;28;20482;-78
2023/01/12 05:57:59;;;;;;;20.73;8.30;;;;;;;;;;5075242;28;20115;-78
2023/01/12 06:00:25;;;;;;;13.70;8.55;;;;;;;;;;5074403;28;20108;-77
2023/01/12 06:02:51;;;;;;;26.05;14.85;;;;;;;;;;5075807;28;20103;-77
2023/01/12 06:05:17;;;;;;;27.02;17.08;;;;;;;;;;5075613;28;20499;-77
2023/01/12 06:07:43;;;;;;;27.42;17.00;;;;;;;;;;5075630;28;20028;-77
2023/01/12 06:10:09;;;;;;;26.20;15.73;;;;;;;;;;5072958;28;20395;-78
2023/01/12 06:15:20;;;;;;;34.28;19.75;;;;;;;;;;5069569;28;20078;-77
2023/01/12 06:17:46;;;;;;;44.35;26.70;;;;;;;;;;5075369;28;20057;-77
2023/01/12 06:20:15;;;;;;;70.05;37.65;;;;;;;;;;5072812;28;20067;-77
2023/01/12 06:22:41;;;;;;;27.50;18.45;;;;;;;;;;5074627;28;20033;-78
2023/01/12 06:25:08;;;;;;;19.02;11.80;;;;;;;;;;5074868;28;20749;-78
2023/01/12 06:27:34;;;;;;;24.63;14.60;;;;;;;;;;5076693;28;20020;-77
2023/01/12 06:30:01;;;;;;;23.33;13.93;;;;;;;;;;5084083;28;20222;-78
2023/01/12 06:32:28;;;;;;;23.50;12.43;;;;;;;;;;5047109;28;20036;-78
2023/01/12 06:34:54;;;;;;;21.73;13.30;;;;;;;;;;5071376;28;20639;-78
2023/01/12 06:37:19;;;;;;;16.05;9.02;;;;;;;;;;5068359;28;20025;-78
2023/01/12 06:39:45;;;;;;;17.65;8.23;;;;;;;;;;5073696;28;20387;-78
2023/01/12 06:42:30;;;;;;;14.55;8.80;;;;;;;;;;5073643;28;20021;-77
2023/01/12 06:45:00;;;;;;;19.00;9.43;;;;;;;;;;5076440;28;20024;-77
2023/01/12 06:47:27;;;;;;;20.45;11.13;;;;;;;;;;5071787;28;20743;-78
2023/01/12 06:49:53;;;;;;;22.00;12.35;;;;;;;;;;5070987;28;20032;-77
2023/01/12 06:52:21;;;;;;;45.38;27.27;;;;;;;;;;5078019;28;20063;-77
2023/01/12 06:54:47;;;;;;;21.10;11.70;;;;;;;;;;5079622;28;20044;-77
2023/01/12 06:57:13;;;;;;;21.58;13.93;;;;;;;;;;5073203;28;20037;-77
2023/01/12 06:59:41;;;;;;;19.63;12.40;;;;;;;;;;5073191;28;20039;-77
2023/01/12 07:02:09;;;;;;;17.00;9.18;;;;;;;;;;5072994;28;20115;-78
2023/01/12 07:04:35;;;;;;;22.65;8.73;;;;;;;;;;5082967;28;20040;-78
2023/01/12 07:07:02;;;;;;;16.58;7.95;;;;;;;;;;5076585;28;20102;-77
2023/01/12 07:09:28;;;;;;;14.65;7.85;;;;;;;;;;5078038;28;20028;-77
2023/01/12 07:11:54;;;;;;;29.83;16.13;;;;;;;;;;5065342;28;20064;-77
2023/01/12 07:14:20;;;;;;;34.40;17.90;;;;;;;;;;5073269;28;20379;-77
2023/01/12 07:16:46;;;;;;;32.03;19.88;;;;;;;;;;5069664;28;20032;-77
2023/01/12 07:19:12;;;;;;;37.63;24.25;;;;;;;;;;5064072;28;20349;-77
2023/01/12 07:21:38;;;;;;;37.63;23.02;;;;;;;;;;5077417;28;20112;-77
2023/01/12 07:24:04;;;;;;;33.55;19.48;;;;;;;;;;5079038;28;20092;-77
2023/01/12 07:26:30;;;;;;;32.50;16.60;;;;;;;;;;5072190;28;20067;-77
2023/01/12 07:28:56;;;;;;;23.40;14.23;;;;;;;;;;5073151;28;20029;-77
2023/01/12 07:31:22;;;;;;;24.08;13.40;;;;;;;;;;5072701;28;20032;-78
2023/01/12 07:33:51;;;;;;;25.15;15.68;;;;;;;;;;5072724;28;20096;-77
2023/01/12 07:36:17;;;;;;;28.20;14.30;;;;;;;;;;5072273;28;20083;-78
2023/01/12 07:38:43;;;;;;;27.52;13.88;;;;;;;;;;5052902;28;20033;-77
2023/01/12 07:42:22;;;;;;;27.20;14.05;;;;;;;;;;5066783;28;20036;-78
2023/01/12 07:43:56;;;;;;;31.63;18.48;;;;;;;;;;5067125;28;20033;-78
2023/01/12 07:46:22;;;;;;;24.67;15.02;;;;;;;;;;5072359;28;20029;-77
2023/01/12 07:48:48;;;;;;;20.08;11.70;;;;;;;;;;5072651;28;20028;-77
2023/01/12 07:51:14;;;;;;;25.20;14.75;;;;;;;;;;5071357;28;20044;-77
2023/01/12 07:53:40;;;;;;;43.67;27.38;;;;;;;;;;5063827;28;20017;-77
2023/01/12 07:56:08;;;;;;;45.50;27.15;;;;;;;;;;5070727;28;20107;-77
2023/01/12 07:58:34;;;;;;;40.30;21.25;;;;;;;;;;5070106;28;20034;-77
2023/01/12 08:01:00;;;;;;;32.42;17.77;;;;;;;;;;5062715;28;20123;-77
2023/01/12 08:03:26;;;;;;;41.97;22.73;;;;;;;;;;5065474;28;20020;-77
2023/01/12 08:05:53;;;;;;;50.78;27.63;;;;;;;;;;5063666;28;20028;-78
2023/01/12 08:08:19;;;;;;;57.70;33.88;;;;;;;;;;5072189;28;20150;-77
2023/01/12 08:10:48;;;;;;;49.70;27.88;;;;;;;;;;5072911;28;20040;-77
2023/01/12 08:13:14;;;;;;;46.83;27.02;;;;;;;;;;5067983;28;20029;-77
2023/01/12 08:15:43;;;;;;;58.85;32.50;;;;;;;;;;5072732;28;20033;-77
2023/01/12 08:18:14;;;;;;;53.45;28.88;;;;;;;;;;5068989;28;20033;-78
2023/01/12 08:20:40;;;;;;;37.78;19.75;;;;;;;;;;5070016;28;20341;-77
2023/01/12 08:23:25;;;;;;;18.45;9.70;;;;;;;;;;5064449;28;20410;-77
2023/01/12 08:25:55;;;;;;;16.45;7.20;;;;;;;;;;5066260;28;20029;-78
2023/01/12 08:28:34;;;;;;;18.42;7.60;;;;;;;;;;5071903;28;20836;-77
2023/01/12 08:31:00;;;;;;;12.13;6.85;;;;;;;;;;5073224;28;20039;-77
2023/01/12 08:33:26;;;;;;;20.38;8.93;;;;;;;;;;5074773;28;20032;-77
2023/01/12 08:35:52;;;;;;;26.15;15.15;;;;;;;;;;5072081;28;20055;-77
2023/01/12 08:38:18;;;;;;;36.45;13.45;;;;;;;;;;5070706;28;20043;-77
2023/01/12 08:46:14;;;;;;;28.50;14.23;;;;;;;;;;5069778;28;20046;-77
2023/01/12 08:48:40;;;;;;;26.95;12.40;;;;;;;;;;5071225;28;20025;-77
2023/01/12 08:51:07;;;;;;;29.52;11.77;;;;;;;;;;5072682;28;20040;-78
2023/01/12 08:53:33;;;;;;;20.15;10.77;;;;;;;;;;5074027;28;20037;-77
2023/01/12 08:55:59;;;;;;;21.52;8.32;;;;;;;;;;5064090;28;20386;-77
2023/01/12 08:58:25;;;;;;;16.20;7.25;;;;;;;;;;5078456;28;20056;-77
2023/01/12 09:00:51;;;;;;;15.20;6.65;;;;;;;;;;5079182;28;20459;-77
2023/01/12 09:03:17;;;;;;;12.05;7.00;;;;;;;;;;5082389;28;20037;-77
2023/01/12 09:05:44;;;;;;;11.65;5.53;;;;;;;;;;5060368;28;20374;-77
2023/01/12 09:08:10;;;;;;;9.27;4.65;;;;;;;;;;5077491;28;20039;-77
2023/01/12 09:10:36;;;;;;;12.75;5.60;;;;;;;;;;5079186;28;20035;-78
2023/01/12 09:13:02;;;;;;;10.50;5.72;;;;;;;;;;5079546;28;20103;-77
2023/01/12 09:15:28;;;;;;;11.52;4.50;;;;;;;;;;5078651;28;20091;-78
2023/01/12 09:17:55;;;;;;;16.73;5.95;;;;;;;;;;5066386;28;20037;-77
2023/01/12 09:20:21;;;;;;;12.45;5.53;;;;;;;;;;5071861;28;20635;-77
2023/01/12 09:22:47;;;;;;;14.68;6.63;;;;;;;;;;5074822;28;20040;-77
2023/01/12 09:25:13;;;;;;;25.38;8.70;;;;;;;;;;5072068;28;20078;-77
2023/01/12 09:27:39;;;;;;;26.73;7.25;;;;;;;;;;5078463;28;20035;-78
2023/01/12 09:30:06;;;;;;;13.10;5.68;;;;;;;;;;5078784;28;20369;-77
2023/01/12 09:32:32;;;;;;;15.80;7.15;;;;;;;;;;5078438;28;20035;-78
2023/01/12 09:34:58;;;;;;;14.23;6.63;;;;;;;;;;5078491;28;20029;-78
2023/01/12 09:37:25;;;;;;;15.55;5.80;;;;;;;;;;5069025;28;20101;-78
2023/01/12 09:39:51;;;;;;;12.68;5.07;;;;;;;;;;5078780;28;20016;-78
2023/01/12 09:48:02;;;;;;;20.75;9.75;;;;;;;;;;5078353;28;20080;-78
2023/01/12 09:50:32;;;;;;;20.17;7.82;;;;;;;;;;5078940;28;20718;-78
2023/01/12 09:53:05;;;;;;;19.30;7.50;;;;;;;;;;5078462;28;20085;-78
2023/01/12 09:55:43;;;;;;;17.25;5.22;;;;;;;;;;5079261;28;20100;-78
2023/01/12 09:58:18;;;;;;;22.67;11.60;;;;;;;;;;5074338;28;20071;-78
2023/01/12 10:00:48;;;;;;;13.35;4.20;;;;;;;;;;5077715;28;20029;-78
2023/01/12 10:03:20;;;;;;;9.85;3.58;;;;;;;;;;5072079;28;20035;-78
2023/01/12 10:05:54;;;;;;;7.72;3.22;;;;;;;;;;5068490;28;20033;-77
2023/01/12 10:08:38;;;;;;;6.03;2.90;;;;;;;;;;5091537;28;20036;-78
2023/01/12 10:11:11;;;;;;;12.20;5.18;;;;;;;;;;5076097;28;20033;-78
2023/01/12 10:13:40;;;;;;;8.98;2.92;;;;;;;;;;5075692;28;20025;-78
2023/01/12 10:16:10;;;;;;;7.55;2.50;;;;;;;;;;5084790;28;20079;-78
2023/01/12 10:18:40;;;;;;;10.85;3.78;;;;;;;;;;5082081;28;20033;-78
2023/01/12 10:21:10;;;;;;;6.60;3.40;;;;;;;;;;5076488;28;20069;-77
2023/01/12 10:23:36;;;;;;;10.27;4.18;;;;;;;;;;5076215;28;20123;-78
2023/01/12 10:26:09;;;;;;;8.05;3.45;;;;;;;;;;5077996;28;20203;-78
2023/01/12 10:28:36;;;;;;;8.70;2.83;;;;;;;;;;5065781;28;20035;-77
2023/01/12 10:31:03;;;;;;;8.02;3.03;;;;;;;;;;5072376;28;20100;-77
2023/01/12 10:33:30;;;;;;;13.45;3.92;;;;;;;;;;5074877;28;20051;-77
2023/01/12 10:36:04;;;;;;;8.48;2.50;;;;;;;;;;5065235;28;20044;-78
2023/01/12 10:38:36;;;;;;;11.65;4.05;;;;;;;;;;5075876;28;20036;-78
2023/01/12 10:41:13;;;;;;;10.07;4.22;;;;;;;;;;5071061;28;20028;-78
2023/01/12 10:43:40;;;;;;;10.43;2.20;;;;;;;;;;5077915;28;20024;-78
2023/01/12 10:46:09;;;;;;;8.48;2.97;;;;;;;;;;5066161;28;20108;-78
2023/01/12 10:48:37;;;;;;;8.13;3.08;;;;;;;;;;5076473;28;20419;-77
2023/01/12 10:51:04;;;;;;;11.90;3.78;;;;;;;;;;5072041;28;20024;-78
2023/01/12 10:53:42;;;;;;;8.27;2.90;;;;;;;;;;5072776;28;20067;-78
2023/01/12 10:56:21;;;;;;;10.93;2.90;;;;;;;;;;5073265;28;20115;-78
2023/01/12 10:58:56;;;;;;;5.90;2.10;;;;;;;;;;5074313;28;20363;-77
2023/01/12 11:01:22;;;;;;;8.40;2.20;;;;;;;;;;5081708;28;20055;-78
2023/01/12 11:03:48;;;;;;;6.97;2.30;;;;;;;;;;5074164;28;20055;-77
2023/01/12 11:06:15;;;;;;;6.90;3.00;;;;;;;;;;5074124;28;20086;-77
2023/01/12 11:08:41;;;;;;;6.93;3.22;;;;;;;;;;5066580;28;20371;-77
2023/01/12 11:11:23;;;;;;;8.50;3.28;;;;;;;;;;5068815;28;20043;-77
2023/01/12 11:13:52;;;;;;;8.65;3.28;;;;;;;;;;5072018;28;20045;-77
2023/01/12 11:16:26;;;;;;;10.55;4.20;;;;;;;;;;5070028;28;20041;-77
2023/01/12 11:18:57;;;;;;;11.80;7.22;;;;;;;;;;5068198;28;20079;-77
2023/01/12 11:21:25;;;;;;;14.30;9.07;;;;;;;;;;5060156;28;20406;-77
2023/01/12 11:24:03;;;;;;;6.50;2.88;;;;;;;;;;5068986;28;20024;-77
2023/01/12 11:26:36;;;;;;;13.38;5.03;;;;;;;;;;5065011;28;20055;-77
2023/01/12 11:29:12;;;;;;;9.20;3.50;;;;;;;;;;5072361;28;20039;-77
2023/01/12 11:31:41;;;;;;;9.23;3.20;;;;;;;;;;5066284;28;20039;-77
2023/01/12 11:34:10;;;;;;;10.20;3.08;;;;;;;;;;5073818;28;20020;-77
2023/01/12 11:36:41;;;;;;;10.23;3.40;;;;;;;;;;5072520;28;20055;-77
2023/01/12 11:39:12;;;;;;;7.30;2.80;;;;;;;;;;5072919;28;20032;-77
2023/01/12 11:44:40;;;;;;;16.20;7.40;;;;;;;;;;5067825;28;20411;-77
2023/01/12 11:47:20;;;;;;;12.98;5.65;;;;;;;;;;5067993;28;20044;-77
2023/01/12 11:50:05;;;;;;;14.63;6.35;;;;;;;;;;5073721;28;20029;-77
2023/01/12 11:52:31;;;;;;;17.67;7.97;;;;;;;;;;5067777;28;20386;-77
2023/01/12 11:54:57;;;;;;;14.85;6.55;;;;;;;;;;5073640;28;20040;-77
2023/01/12 11:57:23;;;;;;;10.65;4.93;;;;;;;;;;5073492;28;20036;-77
2023/01/12 11:59:52;;;;;;;11.73;4.75;;;;;;;;;;5073793;28;20032;-77
2023/01/12 12:02:33;;;;;;;10.20;4.10;;;;;;;;;;5067887;28;20033;-78
2023/01/12 12:05:18;;;;;;;17.15;5.13;;;;;;;;;;5074086;28;20036;-77
2023/01/12 12:07:44;;;;;;;7.65;3.83;;;;;;;;;;5073205;28;20195;-77
2023/01/12 12:10:24;;;;;;;9.68;3.65;;;;;;;;;;5071896;28;20101;-77
2023/01/12 12:13:06;;;;;;;9.88;3.72;;;;;;;;;;5075568;28;20025;-77
2023/01/12 12:15:41;;;;;;;8.38;3.17;;;;;;;;;;5073693;28;20110;-76
2023/01/12 12:18:06;;;;;;;7.43;2.72;;;;;;;;;;5064846;28;20071;-77
2023/01/12 12:21:00;;;;;;;11.05;2.97;;;;;;;;;;5072971;28;20032;-77
2023/01/12 12:23:26;;;;;;;8.48;3.10;;;;;;;;;;5072440;28;20059;-77
2023/01/12 12:25:52;;;;;;;8.65;3.28;;;;;;;;;;5078798;28;20052;-77
2023/01/12 12:28:40;;;;;;;10.02;2.75;;;;;;;;;;5070797;28;20040;-77
2023/01/12 12:31:06;;;;;;;5.50;2.08;;;;;;;;;;5072571;28;20383;-77
2023/01/12 12:33:40;;;;;;;7.50;2.58;;;;;;;;;;5073116;28;20028;-77
2023/01/12 12:36:18;;;;;;;8.55;3.00;;;;;;;;;;5073483;28;20503;-77
2023/01/12 12:39:03;;;;;;;9.60;2.53;;;;;;;;;;5065802;28;20035;-77
2023/01/12 12:47:24;;;;;;;11.57;3.13;;;;;;;;;;5069737;28;20044;-77
2023/01/12 12:49:52;;;;;;;9.90;3.22;;;;;;;;;;5062369;28;20035;-76
2023/01/12 12:52:19;;;;;;;9.82;3.42;;;;;;;;;;5065650;28;20119;-77
2023/01/12 12:54:45;;;;;;;10.73;3.10;;;;;;;;;;5072690;28;20430;-77
2023/01/12 12:57:11;;;;;;;11.40;2.92;;;;;;;;;;5072491;28;20060;-77
2023/01/12 12:59:37;;;;;;;12.40;3.75;;;;;;;;;;5066926;28;20471;-77
2023/01/12 13:02:03;;;;;;;9.23;3.70;;;;;;;;;;5072542;28;20039;-77
2023/01/12 13:04:42;;;;;;;12.65;4.20;;;;;;;;;;5072800;28;20046;-77
2023/01/12 13:07:13;;;;;;;14.73;5.28;;;;;;;;;;5070478;28;20037;-77
2023/01/12 13:09:40;;;;;;;14.15;5.03;;;;;;;;;;5077345;28;20418;-77
2023/01/12 13:12:06;;;;;;;11.23;4.00;;;;;;;;;;5074540;28;20067;-77
2023/01/12 13:14:33;;;;;;;10.13;4.28;;;;;;;;;;5074268;28;20036;-77
2023/01/12 13:17:01;;;;;;;11.18;4.55;;;;;;;;;;5083100;28;20041;-77
2023/01/12 13:19:33;;;;;;;11.75;4.30;;;;;;;;;;5072660;28;20113;-77
2023/01/12 13:22:16;;;;;;;8.25;3.63;;;;;;;;;;5052839;28;20036;-77
2023/01/12 13:24:42;;;;;;;11.52;3.25;;;;;;;;;;5055724;28;20025;-77
2023/01/12 13:27:27;;;;;;;10.60;3.17;;;;;;;;;;5073239;28;20063;-77
2023/01/12 13:30:13;;;;;;;9.45;3.60;;;;;;;;;;5072188;28;20158;-77
2023/01/12 13:32:42;;;;;;;11.15;3.38;;;;;;;;;;5072333;28;20371;-77
2023/01/12 13:35:26;;;;;;;8.50;3.10;;;;;;;;;;5072367;28;20057;-77
2023/01/12 13:38:11;;;;;;;14.27;4.78;;;;;;;;;;5062308;28;20117;-77
2023/01/12 13:40:39;;;;;;;13.05;3.30;;;;;;;;;;5072454;28;20033;-77
2023/01/12 13:43:18;;;;;;;11.27;3.05;;;;;;;;;;5075357;28;20031;-77
2023/01/12 13:45:54;;;;;;;10.50;2.80;;;;;;;;;;5075858;28;20360;-77
2023/01/12 13:48:20;;;;;;;8.88;2.60;;;;;;;;;;5075943;28;20029;-77
2023/01/12 13:50:55;;;;;;;8.75;3.63;;;;;;;;;;5076137;28;20028;-77
2023/01/12 13:53:22;;;;;;;7.43;2.83;;;;;;;;;;5074483;28;20048;-77
2023/01/12 13:55:59;;;;;;;11.15;2.78;;;;;;;;;;5077203;28;20432;-77
2023/01/12 13:58:25;;;;;;;7.45;2.38;;;;;;;;;;5065542;28;20032;-77
2023/01/12 14:00:55;;;;;;;9.88;2.55;;;;;;;;;;5070649;28;20452;-77
2023/01/12 14:03:29;;;;;;;9.63;2.30;;;;;;;;;;5075974;28;20029;-77
2023/01/12 14:06:00;;;;;;;9.55;2.63;;;;;;;;;;5068597;28;20067;-77
2023/01/12 14:08:44;;;;;;;7.28;2.25;;;;;;;;;;5072703;28;20033;-77
2023/01/12 14:11:30;;;;;;;10.60;3.03;;;;;;;;;;5069321;28;20032;-77
2023/01/12 14:20:14;;;;;;;9.98;2.20;;;;;;;;;;5081818;28;20461;-77
2023/01/12 14:22:40;;;;;;;8.30;2.78;;;;;;;;;;5076250;28;20070;-76
2023/01/12 14:25:20;;;;;;;7.15;2.22;;;;;;;;;;5076395;28;20032;-77
2023/01/12 14:27:49;;;;;;;8.80;1.80;;;;;;;;;;5070355;28;20345;-77
2023/01/12 14:30:15;;;;;;;7.75;1.90;;;;;;;;;;5062059;28;20033;-77
2023/01/12 14:32:42;;;;;;;6.32;1.60;;;;;;;;;;5074084;28;20498;-77
2023/01/12 14:35:16;;;;;;;6.30;1.50;;;;;;;;;;5083928;28;20494;-77
2023/01/12 14:37:47;;;;;;;6.65;1.95;;;;;;;;;;5075641;28;20036;-77
2023/01/12 14:40:23;;;;;;;7.70;2.33;;;;;;;;;;5075498;28;20016;-77
2023/01/12 14:48:28;;;;;;;10.10;3.47;;;;;;;;;;5073639;28;20094;-77
2023/01/12 14:51:02;;;;;;;13.43;3.40;;;;;;;;;;5068540;28;20349;-77
2023/01/12 14:53:32;;;;;;;7.10;2.33;;;;;;;;;;5073904;28;20043;-77
2023/01/12 14:56:06;;;;;;;11.95;2.58;;;;;;;;;;5072194;28;20059;-77
2023/01/12 14:58:32;;;;;;;8.40;2.67;;;;;;;;;;5073145;28;20067;-77
2023/01/12 15:00:58;;;;;;;8.23;2.47;;;;;;;;;;5075989;28;20071;-77
2023/01/12 15:03:25;;;;;;;8.98;2.55;;;;;;;;;;5076142;28;20497;-77
2023/01/12 15:05:53;;;;;;;10.90;2.67;;;;;;;;;;5076463;28;20336;-77
2023/01/12 15:08:25;;;;;;;7.78;2.08;;;;;;;;;;5074719;28;20426;-77
2023/01/12 15:11:18;;;;;;;14.40;2.53;;;;;;;;;;5071752;28;20475;-77
2023/01/12 15:13:44;;;;;;;8.45;2.42;;;;;;;;;;5064613;28;20127;-77
2023/01/12 15:27:12;;;;;;;9.45;2.80;;;;;;;;;;5067675;28;20071;-77
2023/01/12 15:29:38;;;;;;;7.10;2.40;;;;;;;;;;5075990;28;20063;-77
2023/01/12 15:32:04;;;;;;;10.40;3.17;;;;;;;;;;5075700;28;20467;-77
2023/01/12 15:34:32;;;;;;;10.00;4.63;;;;;;;;;;5075162;28;20037;-77
2023/01/12 15:36:58;;;;;;;12.52;5.47;;;;;;;;;;5070421;28;20110;-77
2023/01/12 15:39:24;;;;;;;13.93;5.47;;;;;;;;;;5075516;28;20032;-77
2023/01/12 15:44:37;;;;;;;14.65;4.28;;;;;;;;;;5068654;28;20039;-77
2023/01/12 15:47:03;;;;;;;15.60;3.92;;;;;;;;;;5055678;28;20028;-77
2023/01/12 15:49:29;;;;;;;12.93;3.33;;;;;;;;;;5075348;28;20036;-77